createdAt,value
2018-12-14T00:00:59.512Z,71.20
2018-12-14T00:03:27.378Z,70.60
2018-12-14T00:05:55.206Z,70.40
2018-12-14T00:08:23.335Z,69.70
2018-12-14T00:10:51.124Z,69.90
2018-12-14T00:13:19.250Z,70.90
2018-12-14T00:15:46.999Z,71.30
2018-12-14T00:18:14.904Z,72.00
2018-12-14T00:20:42.752Z,71.80
2018-12-14T00:23:10.571Z,71.50
2018-12-14T00:25:38.355Z,71.10
2018-12-14T00:28:06.181Z,71.20
2018-12-14T00:30:34.031Z,71.70
2018-12-14T00:33:01.823Z,72.20
2018-12-14T00:35:29.919Z,72.40
2018-12-14T00:37:57.845Z,72.50
2018-12-14T00:40:25.823Z,72.20
2018-12-14T00:42:53.615Z,72.40
2018-12-14T00:45:21.457Z,71.80
2018-12-14T00:47:50.258Z,71.10
2018-12-14T00:50:18.202Z,70.30
2018-12-14T00:52:46.050Z,70.20
2018-12-14T00:55:13.873Z,70.40
2018-12-14T00:57:41.708Z,70.60
2018-12-14T01:00:10.427Z,70.20
2018-12-14T01:02:38.227Z,70.00
2018-12-14T01:05:06.565Z,70.10
2018-12-14T01:07:34.630Z,70.60
2018-12-14T01:10:02.582Z,71.40
2018-12-14T01:12:30.418Z,71.80
2018-12-14T01:14:58.956Z,72.40
2018-12-14T01:17:26.855Z,72.80
2018-12-14T01:19:54.679Z,73.10
2018-12-14T01:22:22.499Z,73.30
2018-12-14T01:24:50.361Z,73.30
2018-12-14T01:27:18.275Z,73.30
2018-12-14T01:29:46.090Z,73.60
2018-12-14T01:32:13.860Z,73.50
2018-12-14T01:34:41.947Z,74.20
2018-12-14T01:37:09.715Z,74.60
2018-12-14T01:39:37.598Z,75.00
2018-12-14T01:42:05.413Z,75.60
2018-12-14T01:44:33.191Z,75.70
2018-12-14T01:47:01.027Z,76.20
2018-12-14T01:49:28.863Z,76.40
2018-12-14T01:51:56.616Z,76.10
2018-12-14T01:54:24.468Z,76.40
2018-12-14T01:56:52.616Z,76.30
2018-12-14T01:59:20.374Z,76.40
2018-12-14T02:01:48.199Z,76.40
2018-12-14T02:04:16.250Z,75.80
2018-12-14T02:06:44.077Z,75.50
2018-12-14T02:09:11.852Z,74.60
2018-12-14T02:11:39.955Z,74.60
2018-12-14T02:14:07.769Z,74.50
2018-12-14T02:16:35.699Z,74.50
2018-12-14T02:19:03.530Z,74.60
2018-12-14T02:21:31.435Z,74.20
2018-12-14T02:23:59.186Z,73.30
2018-12-14T02:26:26.990Z,73.40
2018-12-14T02:28:54.750Z,73.20
2018-12-14T02:31:22.552Z,73.30
2018-12-14T02:33:50.308Z,73.60
2018-12-14T02:36:18.199Z,73.80
2018-12-14T02:38:46.155Z,73.90
2018-12-14T02:41:14.039Z,74.10
2018-12-14T02:43:42.037Z,76.20
2018-12-14T02:46:09.873Z,75.40
2018-12-14T02:48:37.608Z,75.50
2018-12-14T02:51:05.438Z,75.40
2018-12-14T02:53:33.187Z,75.80
2018-12-14T02:56:01.048Z,76.10
2018-12-14T02:58:28.819Z,76.40
2018-12-14T03:00:56.623Z,76.30
2018-12-14T03:03:24.403Z,76.20
2018-12-14T03:05:52.220Z,76.20
2018-12-14T03:08:19.992Z,75.90
2018-12-14T03:10:48.022Z,75.70
2018-12-14T03:13:16.147Z,75.50
2018-12-14T03:15:44.169Z,75.20
2018-12-14T03:18:11.991Z,74.70
2018-12-14T03:20:39.886Z,74.20
2018-12-14T03:23:07.669Z,73.30
2018-12-14T03:25:35.414Z,73.20
2018-12-14T03:28:03.206Z,73.20
2018-12-14T03:30:31.132Z,74.00
2018-12-14T03:32:58.884Z,73.30
2018-12-14T03:35:26.683Z,73.40
2018-12-14T03:37:54.539Z,73.80
2018-12-14T03:40:22.364Z,73.90
2018-12-14T03:42:50.272Z,74.20
2018-12-14T03:45:18.143Z,74.40
2018-12-14T03:47:45.929Z,74.60
2018-12-14T03:50:13.796Z,74.30
2018-12-14T03:52:41.723Z,74.10
2018-12-14T03:55:09.674Z,73.80
2018-12-14T03:57:37.492Z,73.60
2018-12-14T04:00:07.077Z,73.40
2018-12-14T04:02:34.899Z,73.30
2018-12-14T04:05:02.694Z,73.90
2018-12-14T04:07:30.477Z,74.60
2018-12-14T04:09:58.324Z,75.40
2018-12-14T04:12:26.123Z,75.90
2018-12-14T04:14:53.958Z,76.50
2018-12-14T04:17:22.419Z,75.00
2018-12-14T04:19:50.205Z,75.30
2018-12-14T04:22:22.099Z,75.00
2018-12-14T04:24:49.893Z,74.80
2018-12-14T04:27:18.070Z,75.50
2018-12-14T04:29:45.916Z,74.50
2018-12-14T04:32:13.887Z,74.40
2018-12-14T04:34:41.763Z,73.80
2018-12-14T04:37:09.604Z,73.90
2018-12-14T04:39:37.386Z,73.90
2018-12-14T04:42:05.203Z,73.80
2018-12-14T04:44:32.959Z,73.50
2018-12-14T04:47:00.901Z,73.30
2018-12-14T04:49:28.895Z,73.80
2018-12-14T04:51:56.629Z,74.10
2018-12-14T04:54:24.477Z,74.90
2018-12-14T04:56:52.303Z,74.40
2018-12-14T04:59:20.124Z,73.90
2018-12-14T05:01:47.935Z,73.70
2018-12-14T05:04:15.715Z,73.30
2018-12-14T05:06:43.539Z,73.60
2018-12-14T05:09:11.414Z,74.20
2018-12-14T05:11:39.447Z,74.50
2018-12-14T05:14:07.360Z,75.50
2018-12-14T05:16:35.147Z,75.70
2018-12-14T05:19:02.964Z,75.90
2018-12-14T05:21:31.030Z,75.30
2018-12-14T05:23:58.807Z,75.90
2018-12-14T05:26:26.571Z,75.20
2018-12-14T05:28:54.542Z,75.10
2018-12-14T05:31:22.346Z,74.30
2018-12-14T05:33:50.123Z,73.70
2018-12-14T05:36:18.217Z,74.90
2018-12-14T05:38:45.971Z,74.50
2018-12-14T05:41:13.824Z,73.50
2018-12-14T05:43:41.720Z,74.00
2018-12-14T05:46:09.492Z,73.80
2018-12-14T05:48:38.239Z,74.00
2018-12-14T05:51:06.185Z,74.50
2018-12-14T05:53:33.976Z,74.50
2018-12-14T05:56:01.739Z,74.00
2018-12-14T05:58:30.559Z,73.80
2018-12-14T06:00:59.115Z,73.60
2018-12-14T06:03:27.166Z,73.10
2018-12-14T06:05:54.926Z,72.80
2018-12-14T06:08:22.840Z,73.20
2018-12-14T06:10:50.783Z,73.90
2018-12-14T06:13:18.684Z,74.20
2018-12-14T06:15:46.452Z,73.80
2018-12-14T06:18:14.367Z,73.40
2018-12-14T06:20:42.240Z,73.80
2018-12-14T06:23:10.013Z,74.40
2018-12-14T06:25:37.740Z,74.50
2018-12-14T06:28:05.531Z,74.70
2018-12-14T06:30:33.290Z,74.70
2018-12-14T06:33:01.047Z,75.10
2018-12-14T06:35:28.864Z,75.00
2018-12-14T06:37:56.634Z,74.00
2018-12-14T06:40:24.451Z,73.40
2018-12-14T06:42:52.183Z,73.60
2018-12-14T06:45:20.048Z,74.20
2018-12-14T06:47:47.897Z,73.80
2018-12-14T06:50:15.989Z,74.00
2018-12-14T06:52:43.798Z,74.00
2018-12-14T06:55:11.683Z,74.20
2018-12-14T06:57:39.462Z,74.70
2018-12-14T07:00:07.595Z,75.20
2018-12-14T07:02:35.611Z,75.20
2018-12-14T07:05:03.537Z,75.00
2018-12-14T07:07:31.291Z,73.30
2018-12-14T07:09:59.170Z,72.10
2018-12-14T07:12:27.000Z,72.10
2018-12-14T07:14:54.786Z,72.90
2018-12-14T07:17:23.623Z,73.00
2018-12-14T07:19:51.423Z,73.50
2018-12-14T07:22:19.340Z,75.00
2018-12-14T07:24:47.391Z,75.40
2018-12-14T07:27:15.261Z,75.90
2018-12-14T07:29:43.211Z,75.60
2018-12-14T07:32:11.109Z,75.70
2018-12-14T07:34:38.855Z,75.80
2018-12-14T07:37:06.627Z,76.70
2018-12-14T07:39:34.432Z,76.00
2018-12-14T07:42:02.231Z,76.30
2018-12-14T07:44:30.118Z,76.40
2018-12-14T07:46:58.182Z,76.20
2018-12-14T07:49:25.967Z,75.40
2018-12-14T07:51:53.732Z,74.20
2018-12-14T07:54:21.503Z,73.70
2018-12-14T07:56:49.316Z,73.70
2018-12-14T07:59:17.252Z,73.30
2018-12-14T08:01:45.048Z,73.80
2018-12-14T08:04:13.223Z,72.60
2018-12-14T08:06:40.999Z,71.90
2018-12-14T08:09:08.851Z,68.50
2018-12-14T08:11:36.639Z,66.40
2018-12-14T08:14:04.410Z,66.60
2018-12-14T08:16:32.142Z,65.70
2018-12-14T08:18:59.879Z,63.00
2018-12-14T08:21:27.672Z,60.00
2018-12-14T08:23:55.432Z,58.40
2018-12-14T08:26:23.228Z,59.10
2018-12-14T08:28:50.987Z,58.30
2018-12-14T08:31:19.038Z,58.00
2018-12-14T08:33:46.857Z,56.90
2018-12-14T08:36:14.692Z,56.20
2018-12-14T08:38:42.535Z,55.10
2018-12-14T08:41:10.296Z,56.20
2018-12-14T08:43:41.457Z,54.30
2018-12-14T08:46:07.975Z,54.90
2018-12-14T08:48:35.724Z,53.90
2018-12-14T08:51:03.472Z,51.30
2018-12-14T08:53:31.461Z,51.00
2018-12-14T08:55:59.201Z,50.00
2018-12-14T08:58:27.111Z,50.20
2018-12-14T09:00:54.862Z,49.60
2018-12-14T09:03:23.094Z,48.70
2018-12-14T09:05:50.815Z,47.50
2018-12-14T09:08:18.610Z,44.90
2018-12-14T09:10:46.465Z,44.30
2018-12-14T09:13:14.844Z,44.60
2018-12-14T09:15:42.726Z,44.90
2018-12-14T09:18:10.558Z,44.40
2018-12-14T09:20:38.351Z,44.20
2018-12-14T09:23:06.426Z,44.20
2018-12-14T09:25:34.187Z,43.40
2018-12-14T09:28:01.958Z,43.00
2018-12-14T09:30:29.767Z,42.30
2018-12-14T09:32:57.555Z,41.30
2018-12-14T09:35:25.306Z,41.20
2018-12-14T09:37:53.092Z,41.20
2018-12-14T09:40:20.863Z,41.30
2018-12-14T09:42:48.643Z,39.30
2018-12-14T09:45:16.576Z,39.00
2018-12-14T09:47:44.315Z,38.80
2018-12-14T09:50:12.111Z,38.50
2018-12-14T09:52:39.895Z,37.00
2018-12-14T09:55:07.635Z,37.60
2018-12-14T09:57:35.399Z,37.10
2018-12-14T10:00:03.656Z,37.40
2018-12-14T10:02:31.455Z,37.30
2018-12-14T10:04:59.215Z,38.00
2018-12-14T10:07:27.008Z,37.50
2018-12-14T10:09:54.751Z,36.30
2018-12-14T10:12:22.551Z,36.00
2018-12-14T10:14:50.379Z,34.80
2018-12-14T10:17:18.265Z,34.50
2018-12-14T10:19:46.046Z,33.80
2018-12-14T10:22:14.047Z,33.70
2018-12-14T10:24:41.831Z,32.80
2018-12-14T10:27:09.600Z,32.60
2018-12-14T10:29:37.380Z,31.90
2018-12-14T10:32:05.119Z,32.70
2018-12-14T10:34:33.672Z,31.30
2018-12-14T10:37:01.416Z,32.30
2018-12-14T10:39:29.871Z,32.50
2018-12-14T10:41:57.690Z,31.30
2018-12-14T10:44:29.685Z,31.60
2018-12-14T10:46:55.241Z,31.90
2018-12-14T10:49:22.988Z,30.90
2018-12-14T10:51:51.070Z,29.40
2018-12-14T10:54:19.661Z,30.40
2018-12-14T10:56:49.515Z,31.80
2018-12-14T10:59:17.341Z,32.50
2018-12-14T11:01:50.783Z,31.40
2018-12-14T11:04:18.648Z,30.70
2018-12-14T11:06:46.899Z,31.10
2018-12-14T11:09:14.959Z,30.80
2018-12-14T11:11:42.791Z,30.80
2018-12-14T11:14:13.979Z,30.90
2018-12-14T11:16:40.560Z,30.60
2018-12-14T11:19:08.431Z,30.20
2018-12-14T11:21:36.207Z,29.20
2018-12-14T11:24:04.047Z,30.00
2018-12-14T11:26:31.858Z,31.10
2018-12-14T11:28:59.686Z,30.00
2018-12-14T11:31:27.675Z,30.60
2018-12-14T11:33:55.427Z,30.20
2018-12-14T11:36:23.521Z,29.30
2018-12-14T11:38:51.267Z,28.90
2018-12-14T11:41:19.293Z,28.30
2018-12-14T11:43:47.190Z,28.00
2018-12-14T11:46:15.183Z,27.70
2018-12-14T11:48:43.026Z,28.60
2018-12-14T11:51:13.408Z,28.60
2018-12-14T11:53:41.220Z,28.30
2018-12-14T11:56:09.079Z,28.00
2018-12-14T11:58:36.867Z,27.10
2018-12-14T12:01:04.823Z,26.60
2018-12-14T12:03:32.614Z,25.90
2018-12-14T12:06:00.914Z,24.90
2018-12-14T12:08:28.741Z,25.10
2018-12-14T12:10:56.567Z,25.30
2018-12-14T12:13:24.516Z,25.00
2018-12-14T12:15:52.295Z,24.80
2018-12-14T12:18:20.074Z,23.90
2018-12-14T12:20:47.871Z,23.90
2018-12-14T12:23:15.716Z,23.80
2018-12-14T12:25:43.520Z,25.00
2018-12-14T12:28:11.387Z,25.30
2018-12-14T12:30:39.135Z,25.50
2018-12-14T12:33:06.879Z,25.10
2018-12-14T12:35:34.659Z,24.00
2018-12-14T12:38:02.543Z,23.80
2018-12-14T12:40:30.306Z,24.50
2018-12-14T12:42:58.138Z,25.00
2018-12-14T12:45:25.890Z,24.80
2018-12-14T12:47:53.683Z,24.30
2018-12-14T12:50:21.451Z,24.50
2018-12-14T12:52:49.207Z,24.00
2018-12-14T12:55:17.034Z,24.00
2018-12-14T12:57:45.287Z,24.80
2018-12-14T13:00:13.303Z,24.60
2018-12-14T13:02:41.315Z,24.90
2018-12-14T13:05:09.168Z,25.00
2018-12-14T13:07:36.942Z,25.10
2018-12-14T13:10:04.745Z,25.00
2018-12-14T13:12:32.494Z,24.80
2018-12-14T13:15:00.268Z,25.10
2018-12-14T13:17:28.046Z,25.40
2018-12-14T13:19:55.811Z,24.80
2018-12-14T13:22:23.598Z,24.70
2018-12-14T13:24:51.363Z,24.70
2018-12-14T13:27:20.478Z,25.30
2018-12-14T13:29:48.493Z,25.30
2018-12-14T13:32:16.263Z,25.20
2018-12-14T13:34:44.078Z,25.00
2018-12-14T13:37:11.891Z,25.40
2018-12-14T13:39:39.656Z,25.30
2018-12-14T13:42:07.511Z,25.30
2018-12-14T13:44:35.941Z,24.20
2018-12-14T13:47:03.665Z,24.30
2018-12-14T13:49:31.450Z,24.70
2018-12-14T13:51:59.237Z,24.50
2018-12-14T13:54:26.960Z,24.30
2018-12-14T13:56:54.698Z,24.50
2018-12-14T13:59:22.493Z,25.00
2018-12-14T14:01:50.315Z,25.10
2018-12-14T14:04:18.238Z,25.20
2018-12-14T14:06:46.066Z,25.10
2018-12-14T14:09:13.838Z,25.00
2018-12-14T14:11:41.652Z,24.90
2018-12-14T14:14:09.502Z,24.70
2018-12-14T14:16:37.895Z,24.70
2018-12-14T14:19:05.632Z,24.60
2018-12-14T14:21:33.376Z,24.40
2018-12-14T14:24:01.189Z,24.40
2018-12-14T14:26:29.614Z,24.40
2018-12-14T14:28:57.391Z,24.30
2018-12-14T14:31:25.172Z,24.80
2018-12-14T14:33:52.959Z,25.20
2018-12-14T14:36:20.852Z,25.40
2018-12-14T14:38:48.916Z,25.40
2018-12-14T14:41:16.899Z,26.10
2018-12-14T14:43:44.786Z,26.60
2018-12-14T14:46:12.567Z,27.10
2018-12-14T14:48:40.302Z,27.30
2018-12-14T14:51:08.494Z,27.80
2018-12-14T14:53:36.244Z,28.40
2018-12-14T14:56:03.991Z,28.70
2018-12-14T14:58:31.755Z,29.80
2018-12-14T15:00:59.503Z,29.90
2018-12-14T15:03:27.451Z,29.90
2018-12-14T15:05:55.199Z,30.80
2018-12-14T15:08:22.987Z,32.20
2018-12-14T15:10:50.783Z,33.20
2018-12-14T15:13:18.726Z,34.10
2018-12-14T15:15:46.560Z,35.50
2018-12-14T15:18:14.339Z,37.10
2018-12-14T15:20:42.116Z,38.20
2018-12-14T15:23:09.819Z,39.50
2018-12-14T15:25:37.700Z,40.10
2018-12-14T15:28:05.442Z,41.80
2018-12-14T15:30:33.199Z,42.80
2018-12-14T15:33:00.976Z,43.30
2018-12-14T15:35:28.747Z,44.80
2018-12-14T15:37:56.512Z,45.40
2018-12-14T15:40:24.254Z,45.80
2018-12-14T15:42:52.030Z,46.90
2018-12-14T15:45:19.834Z,47.70
2018-12-14T15:47:47.926Z,48.50
2018-12-14T15:50:15.812Z,48.80
2018-12-14T15:52:43.569Z,49.60
2018-12-14T15:55:11.359Z,49.80
2018-12-14T15:57:39.101Z,50.50
2018-12-14T16:00:07.494Z,51.00
2018-12-14T16:02:35.286Z,51.70
2018-12-14T16:05:03.241Z,52.00
2018-12-14T16:07:31.018Z,52.30
2018-12-14T16:09:58.776Z,52.10
2018-12-14T16:12:26.577Z,52.00
2018-12-14T16:14:54.336Z,52.60
2018-12-14T16:17:22.406Z,52.70
2018-12-14T16:19:50.290Z,52.90
2018-12-14T16:22:18.536Z,53.70
2018-12-14T16:24:46.527Z,54.30
2018-12-14T16:27:14.505Z,54.80
2018-12-14T16:29:42.582Z,55.30
2018-12-14T16:32:10.771Z,55.80
2018-12-14T16:34:38.683Z,56.50
2018-12-14T16:37:07.017Z,56.80
2018-12-14T16:39:35.154Z,56.70
2018-12-14T16:42:03.096Z,56.60
2018-12-14T16:44:30.863Z,56.40
2018-12-14T16:46:58.827Z,55.70
2018-12-14T16:49:26.584Z,55.10
2018-12-14T16:51:54.325Z,54.60
2018-12-14T16:54:22.071Z,55.00
2018-12-14T16:56:50.111Z,55.60
2018-12-14T16:59:18.253Z,56.00
2018-12-14T17:01:46.154Z,56.50
2018-12-14T17:04:13.935Z,56.40
2018-12-14T17:06:41.723Z,56.10
2018-12-14T17:09:09.565Z,56.30
2018-12-14T17:11:37.527Z,56.70
2018-12-14T17:14:05.392Z,57.20
2018-12-14T17:16:33.313Z,56.90
2018-12-14T17:19:01.156Z,57.40
2018-12-14T17:21:28.962Z,57.40
2018-12-14T17:23:56.810Z,57.80
2018-12-14T17:26:24.729Z,57.70
2018-12-14T17:28:52.607Z,57.90
2018-12-14T17:31:20.736Z,58.00
2018-12-14T17:33:48.579Z,58.30
2018-12-14T17:36:16.404Z,58.20
2018-12-14T17:38:44.223Z,58.30
2018-12-14T17:41:12.290Z,58.30
2018-12-14T17:43:40.103Z,58.30
2018-12-14T17:46:07.889Z,58.00
2018-12-14T17:48:35.706Z,58.20
2018-12-14T17:51:03.520Z,58.20
2018-12-14T17:53:31.343Z,58.50
2018-12-14T17:55:59.115Z,58.60
2018-12-14T17:58:26.955Z,58.40
2018-12-14T18:00:58.366Z,58.30
2018-12-14T18:03:24.888Z,58.60
2018-12-14T18:05:52.753Z,58.60
2018-12-14T18:08:20.622Z,58.60
2018-12-14T18:10:48.591Z,58.60
2018-12-14T18:13:16.434Z,59.20
2018-12-14T18:15:46.433Z,59.00
2018-12-14T18:18:13.957Z,59.40
2018-12-14T18:20:41.799Z,60.00
2018-12-14T18:23:09.615Z,60.30
2018-12-14T18:25:37.435Z,61.00
2018-12-14T18:28:05.223Z,60.50
2018-12-14T18:30:32.980Z,61.00
2018-12-14T18:33:01.016Z,61.00
2018-12-14T18:35:28.790Z,60.60
2018-12-14T18:37:56.542Z,60.80
2018-12-14T18:40:24.297Z,60.80
2018-12-14T18:42:52.143Z,61.00
2018-12-14T18:45:20.090Z,61.10
2018-12-14T18:47:48.064Z,61.00
2018-12-14T18:50:15.816Z,60.90
2018-12-14T18:52:43.613Z,60.90
2018-12-14T18:55:11.559Z,60.80
2018-12-14T18:57:39.443Z,61.00
2018-12-14T19:00:09.238Z,61.20
2018-12-14T19:02:37.031Z,60.60
2018-12-14T19:05:05.479Z,60.40
2018-12-14T19:07:33.259Z,60.60
2018-12-14T19:10:01.007Z,60.60
2018-12-14T19:12:29.006Z,60.40
2018-12-14T19:14:56.980Z,60.70
2018-12-14T19:17:24.870Z,60.90
2018-12-14T19:19:52.720Z,60.50
2018-12-14T19:22:20.531Z,60.40
2018-12-14T19:24:48.434Z,61.40
2018-12-14T19:27:16.191Z,60.90
2018-12-14T19:29:43.926Z,61.10
2018-12-14T19:32:11.723Z,61.10
2018-12-14T19:34:39.491Z,61.10
2018-12-14T19:37:07.403Z,60.90
2018-12-14T19:39:35.211Z,60.60
2018-12-14T19:42:03.044Z,60.00
2018-12-14T19:44:30.841Z,60.00
2018-12-14T19:46:58.727Z,60.60
2018-12-14T19:49:26.644Z,61.00
2018-12-14T19:51:54.706Z,60.80
2018-12-14T19:54:22.744Z,60.20
2018-12-14T19:56:50.956Z,60.30
2018-12-14T19:59:18.955Z,60.30
2018-12-14T20:01:46.848Z,60.50
2018-12-14T20:04:14.708Z,60.60
2018-12-14T20:06:42.456Z,60.80
2018-12-14T20:09:10.293Z,61.30
2018-12-14T20:11:38.039Z,60.90
2018-12-14T20:14:05.830Z,60.80
2018-12-14T20:16:33.628Z,60.40
2018-12-14T20:19:01.399Z,60.10
2018-12-14T20:21:29.203Z,60.30
2018-12-14T20:23:56.971Z,60.20
2018-12-14T20:26:24.690Z,60.70
2018-12-14T20:28:52.568Z,60.60
2018-12-14T20:31:20.411Z,60.80
2018-12-14T20:33:48.194Z,61.40
2018-12-14T20:36:16.064Z,61.50
2018-12-14T20:38:43.807Z,61.80
2018-12-14T20:41:11.587Z,61.80
2018-12-14T20:43:39.323Z,61.80
2018-12-14T20:46:07.091Z,62.30
2018-12-14T20:48:34.914Z,61.60
2018-12-14T20:51:03.846Z,61.80
2018-12-14T20:53:31.667Z,62.20
2018-12-14T20:55:59.458Z,62.20
2018-12-14T20:58:27.227Z,62.10
2018-12-14T21:00:55.020Z,62.20
2018-12-14T21:03:22.875Z,62.30
2018-12-14T21:05:50.731Z,62.40
2018-12-14T21:08:18.683Z,62.30
2018-12-14T21:10:46.450Z,62.10
2018-12-14T21:13:14.257Z,62.60
2018-12-14T21:15:42.155Z,62.90
2018-12-14T21:18:09.975Z,63.80
2018-12-14T21:20:37.842Z,62.20
2018-12-14T21:23:05.784Z,62.20
2018-12-14T21:25:33.607Z,62.50
2018-12-14T21:28:01.352Z,62.60
2018-12-14T21:30:29.128Z,62.10
2018-12-14T21:32:56.988Z,62.50
2018-12-14T21:35:24.836Z,61.70
2018-12-14T21:37:52.919Z,61.80
2018-12-14T21:40:20.838Z,62.60
2018-12-14T21:42:48.606Z,62.80
2018-12-14T21:45:16.564Z,62.80
2018-12-14T21:47:44.403Z,62.30
2018-12-14T21:50:12.375Z,61.40
2018-12-14T21:52:40.204Z,61.50
2018-12-14T21:55:08.123Z,61.60
2018-12-14T21:57:36.211Z,61.70
2018-12-14T22:00:07.211Z,62.20
2018-12-14T22:02:35.715Z,62.20
2018-12-14T22:05:04.140Z,62.20
2018-12-14T22:07:31.984Z,62.20
2018-12-14T22:09:59.753Z,61.60
2018-12-14T22:12:27.580Z,62.20
2018-12-14T22:14:55.426Z,62.50
2018-12-14T22:17:23.231Z,62.30
2018-12-14T22:19:51.029Z,62.70
2018-12-14T22:22:18.831Z,63.00
2018-12-14T22:24:46.611Z,63.40
2018-12-14T22:27:14.431Z,63.60
2018-12-14T22:29:42.263Z,63.20
2018-12-14T22:32:10.108Z,63.00
2018-12-14T22:34:37.954Z,62.70
2018-12-14T22:37:05.776Z,63.40
2018-12-14T22:39:34.153Z,63.60
2018-12-14T22:42:01.953Z,63.90
2018-12-14T22:44:29.759Z,63.80
2018-12-14T22:46:57.583Z,64.20
2018-12-14T22:49:25.363Z,64.70
2018-12-14T22:51:53.197Z,63.60
2018-12-14T22:54:20.967Z,63.50
2018-12-14T22:56:48.814Z,64.00
2018-12-14T22:59:17.407Z,63.90
2018-12-14T23:01:45.183Z,63.90
2018-12-14T23:04:12.939Z,63.70
2018-12-14T23:06:40.690Z,63.80
2018-12-14T23:09:08.430Z,64.60
2018-12-14T23:11:36.176Z,63.80
2018-12-14T23:14:04.006Z,64.20
2018-12-14T23:16:31.864Z,64.20
2018-12-14T23:18:59.697Z,64.20
2018-12-14T23:21:27.435Z,64.20
2018-12-14T23:23:55.218Z,64.20
2018-12-14T23:26:23.079Z,64.20
2018-12-14T23:28:50.921Z,64.30
2018-12-14T23:31:18.675Z,64.30
2018-12-14T23:33:47.406Z,64.00
2018-12-14T23:36:15.122Z,63.80
2018-12-14T23:38:42.910Z,63.80
2018-12-14T23:41:10.656Z,63.90
2018-12-14T23:43:38.431Z,64.10
2018-12-14T23:46:06.494Z,64.20
2018-12-14T23:48:34.224Z,63.80
2018-12-14T23:51:01.934Z,63.90
2018-12-14T23:53:29.651Z,63.80
2018-12-14T23:55:57.865Z,64.10
2018-12-14T23:58:25.627Z,63.80
